St Petersburg Clearwater International Airport
KPIE : rendu visible

Aérodrome :











RETROUVEZ-NOUS SUR...

 
LOGIN :

S'inscrire | Disclaimer

   EN    FR    IT 

 









Légende :    VFR   VFR Marginal   IFR   IFR Intensif   IFR Très Intensif
Visi : 
Plafond : 
>= 8 km
>= 3000ft
5 à 8 km
1000 à 3000 ft
1500m à 5 km
500 à 1000 ft
800 à 1500m
200 à 500 ft
< 800m
< 200 ft
Symboles :   Orages  Brouillard  Fortes neiges  Fortes précipitations  Vent > 20 kt







- Altitude de l'aérodrome : 11 ft
- Code IATA : PIE


KPIE - St Petersburg Clearwater International

DERNIER METAR :
  • 180553Z AUTO 06004KT 10SM CLR 28/21 A2995 RMK AO2 SLP142 T02830206 10300 20278 58005

METARs EXPIRÉS :
  • 180453Z AUTO 05005KT 10SM CLR 29/22 A2996 RMK AO2 SLP144 T02890222 403440250
  • 180353Z AUTO 35004KT 10SM CLR 28/24 A2996 RMK AO2 SLP146 T02830244

TAF KPIE
Valide du 18 à 06h jusqu'au 19 à 06h UTC


180521Z 1806/1906 04005KT P6SM SKC
FM181800 02007KT P6SM BKN100
FM182200 36007KT P6SM VCTS BKN050CB
FM190300 07011KT P6SM FEW035 BKN070
Pas de NOTAMs connus pour ce terrain.



MET'MAP, la Météo Aéronautique d'un coup d'oeil ! - Copyright ORBIFLY Décembre 2007 - Disclaimer

ORBIFLY MET'MAP TEAM :

Programmation & Développement : Alexandra Zaïnal
Conception & Développement : Baudouin d'Aumeries
Co-Programmation & Développement : Marc-Olivier Méhu
Soutien technique & logistique : Manuel Goepfert

Contact : metmap@orbifly.com




SOURCES & CREDITS :

   NOAA       Earth
Advisory